Time;durP1;ratioP1;P1;durP2;ratioP2;P2;SDS_P1;SDS_P2;PMS_P1;PMS_P2;Temp;Humidity;BMP_temperature;BMP_pressure;BME280_temperature;BME280_humidity;BME280_pressure;Samples;Min_cycle;Max_cycle;Signal;HPM_P1;HPM_P2
2021/12/31 00:07:33;;;;;;;0.20;0.10;;;14.10;99.90;;;;;;20731961;28;20202;-76
2021/12/31 00:17:38;;;;;;;0.20;0.10;;;13.90;99.90;;;;;;20802612;28;20232;-76
2021/12/31 00:27:42;;;;;;;0.20;0.10;;;13.90;99.90;;;;;;20812913;28;20190;-77
2021/12/31 00:37:47;;;;;;;0.20;0.10;;;13.80;99.90;;;;;;20812288;28;20214;-77
2021/12/31 00:47:51;;;;;;;0.20;0.10;;;13.80;99.90;;;;;;20814107;28;20262;-75
2021/12/31 00:57:56;;;;;;;0.20;0.10;;;13.60;99.90;;;;;;20832987;28;20233;-77
2021/12/31 01:08:00;;;;;;;0.20;0.10;;;13.20;99.90;;;;;;20898609;22;20232;-79
2021/12/31 01:18:19;;;;;;;0.20;0.10;;;12.70;99.90;;;;;;20889059;28;20312;-78
2021/12/31 01:28:23;;;;;;;0.20;0.10;;;12.60;99.90;;;;;;20878351;28;20662;-80
2021/12/31 01:38:29;;;;;;;0.20;0.10;;;12.70;99.90;;;;;;20893134;28;20194;-81
2021/12/31 01:48:36;;;;;;;0.20;0.10;;;12.70;99.90;;;;;;20885390;28;20624;-80
2021/12/31 01:58:45;;;;;;;0.20;0.07;;;13.00;99.90;;;;;;20876933;28;20187;-79
2021/12/31 02:08:57;;;;;;;0.20;0.10;;;12.60;99.90;;;;;;20905821;28;20591;-81
2021/12/31 02:19:13;;;;;;;0.20;0.10;;;12.50;99.90;;;;;;20858855;28;20205;-81
2021/12/31 02:29:18;;;;;;;1.50;1.40;;;12.40;99.90;;;;;;20910589;28;20209;-82
2021/12/31 02:39:21;;;;;;;0.20;0.10;;;12.20;99.90;;;;;;20887907;28;20215;-82
2021/12/31 02:49:29;;;;;;;0.20;0.10;;;11.60;99.90;;;;;;20887364;28;20222;-83
2021/12/31 02:59:35;;;;;;;0.20;0.10;;;11.20;99.90;;;;;;20905850;28;20189;-83
2021/12/31 03:09:45;;;;;;;0.20;0.10;;;10.80;99.90;;;;;;20867266;28;20294;-84
2021/12/31 03:19:49;;;;;;;0.20;0.10;;;11.20;99.90;;;;;;20870471;28;20671;-83
2021/12/31 03:29:54;;;;;;;0.20;0.10;;;12.10;99.90;;;;;;20903284;28;20564;-84
2021/12/31 03:39:59;;;;;;;0.20;0.10;;;12.20;99.90;;;;;;20902996;28;20292;-83
2021/12/31 03:50:05;;;;;;;0.20;0.10;;;11.70;99.90;;;;;;20883869;28;20221;-83
2021/12/31 04:00:11;;;;;;;0.20;0.10;;;12.30;99.90;;;;;;20884795;28;20279;-83
2021/12/31 04:10:18;;;;;;;0.20;0.10;;;12.30;99.90;;;;;;20972147;28;20320;-82
2021/12/31 04:20:33;;;;;;;1.23;1.23;;;12.10;99.90;;;;;;20956393;28;20252;-81
2021/12/31 04:30:38;;;;;;;0.20;0.10;;;11.90;99.90;;;;;;20959901;28;20224;-80
2021/12/31 04:40:42;;;;;;;0.20;0.10;;;11.90;99.90;;;;;;20979939;28;20259;-80
2021/12/31 04:50:47;;;;;;;0.20;0.10;;;11.80;99.90;;;;;;20936787;28;20226;-80
2021/12/31 05:00:51;;;;;;;0.20;0.10;;;12.00;99.90;;;;;;20854934;28;20279;-81
2021/12/31 05:10:58;;;;;;;0.20;0.10;;;12.20;99.90;;;;;;20829278;28;20240;-83
2021/12/31 05:21:02;;;;;;;0.20;0.10;;;12.10;99.90;;;;;;20830558;28;20702;-83
2021/12/31 05:31:08;;;;;;;0.20;0.10;;;12.00;99.90;;;;;;20829583;28;20733;-84
2021/12/31 05:41:13;;;;;;;0.20;0.10;;;12.30;99.90;;;;;;20818998;28;20647;-82
2021/12/31 05:51:18;;;;;;;0.20;0.10;;;12.10;99.90;;;;;;20818561;28;20280;-84
2021/12/31 06:01:24;;;;;;;0.20;0.10;;;12.00;99.90;;;;;;20808372;28;20230;-83
2021/12/31 06:11:30;;;;;;;0.20;0.10;;;12.20;99.90;;;;;;20847923;28;20218;-84
2021/12/31 06:21:35;;;;;;;0.20;0.10;;;12.00;99.90;;;;;;20907725;28;20627;-83
2021/12/31 06:31:43;;;;;;;0.20;0.10;;;12.00;99.90;;;;;;20893277;28;20644;-84
2021/12/31 06:41:47;;;;;;;0.20;0.00;;;12.30;99.90;;;;;;20841148;28;20662;-87
2021/12/31 06:51:56;;;;;;;0.20;0.10;;;12.00;99.90;;;;;;20830925;28;20310;-85
2021/12/31 07:02:00;;;;;;;0.20;0.10;;;12.00;99.90;;;;;;20907634;28;20310;-85
2021/12/31 07:12:05;;;;;;;0.20;0.10;;;11.90;99.90;;;;;;20919580;28;20229;-84
2021/12/31 07:22:09;;;;;;;0.20;0.10;;;11.90;99.90;;;;;;20934493;28;20197;-83
2021/12/31 07:32:14;;;;;;;0.20;0.10;;;11.80;99.90;;;;;;20871620;28;20237;-84
2021/12/31 07:42:18;;;;;;;0.20;0.10;;;11.80;99.90;;;;;;20904813;28;20220;-81
2021/12/31 07:52:23;;;;;;;0.20;0.10;;;11.70;99.90;;;;;;20887937;28;20677;-83
2021/12/31 08:02:27;;;;;;;0.20;0.10;;;11.80;99.90;;;;;;20906344;28;20536;-81
2021/12/31 08:12:37;;;;;;;0.20;0.10;;;12.20;99.90;;;;;;20920088;28;20275;-81
2021/12/31 08:22:46;;;;;;;0.20;0.10;;;12.40;99.90;;;;;;20847151;28;20198;-78
2021/12/31 08:32:53;;;;;;;0.20;0.10;;;12.60;99.90;;;;;;20847835;28;20226;-78
2021/12/31 08:43:00;;;;;;;0.20;0.10;;;12.90;99.90;;;;;;20836067;28;20248;-82
2021/12/31 08:53:16;;;;;;;0.20;0.00;;;13.10;99.90;;;;;;20798141;28;20222;-80
2021/12/31 09:03:23;;;;;;;0.20;0.10;;;13.40;99.90;;;;;;20855507;28;20327;-82
2021/12/31 09:13:28;;;;;;;0.20;0.10;;;14.20;99.90;;;;;;20862688;28;20285;-81
2021/12/31 09:23:32;;;;;;;0.20;0.10;;;14.70;99.90;;;;;;20868640;28;20209;-79
2021/12/31 09:33:37;;;;;;;0.20;0.10;;;15.00;99.90;;;;;;20868157;28;20249;-77
2021/12/31 09:43:48;;;;;;;0.20;0.00;;;15.10;99.90;;;;;;20871734;28;20225;-79
2021/12/31 09:53:58;;;;;;;0.20;0.10;;;15.30;99.90;;;;;;20862926;28;20642;-80
2021/12/31 10:04:04;;;;;;;0.20;0.00;;;15.70;99.90;;;;;;20856244;28;20255;-79
2021/12/31 10:14:09;;;;;;;0.20;0.10;;;16.20;99.90;;;;;;20867113;28;20631;-79
2021/12/31 10:24:23;;;;;;;0.20;0.10;;;16.80;99.90;;;;;;20906253;28;20232;-73
2021/12/31 10:34:38;;;;;;;0.20;0.10;;;17.40;99.90;;;;;;20905358;28;20224;-78
2021/12/31 10:44:44;;;;;;;0.20;0.00;;;17.80;99.90;;;;;;20868604;28;20205;-77
2021/12/31 10:55:02;;;;;;;0.20;0.10;;;18.00;99.90;;;;;;20900878;28;20221;-77
2021/12/31 11:05:10;;;;;;;0.20;0.13;;;18.20;99.90;;;;;;20902621;28;20358;-79
2021/12/31 11:15:17;;;;;;;0.20;0.00;;;18.40;99.90;;;;;;20899337;28;20275;-75
2021/12/31 11:25:26;;;;;;;0.20;0.13;;;19.10;99.90;;;;;;20881842;28;20286;-75
2021/12/31 11:35:37;;;;;;;0.20;0.10;;;19.10;99.90;;;;;;20858732;28;20232;-77
2021/12/31 11:45:41;;;;;;;0.20;0.10;;;19.60;99.90;;;;;;20835410;28;20531;-78
2021/12/31 11:55:47;;;;;;;0.60;0.60;;;20.10;99.90;;;;;;20818659;28;20917;-76
2021/12/31 12:05:53;;;;;;;0.20;0.00;;;20.40;99.90;;;;;;20869129;28;21065;-77
2021/12/31 12:16:01;;;;;;;0.20;0.10;;;20.60;99.90;;;;;;20878121;28;20254;-77
2021/12/31 12:26:08;;;;;;;0.20;0.00;;;20.80;99.90;;;;;;20898099;28;20259;-76
2021/12/31 12:36:17;;;;;;;0.20;0.10;;;20.80;99.90;;;;;;20881301;28;20217;-77
2021/12/31 12:46:24;;;;;;;0.20;0.20;;;20.90;99.90;;;;;;20878374;28;20197;-78
2021/12/31 12:56:29;;;;;;;0.20;0.17;;;21.30;99.90;;;;;;20907725;28;20239;-77
2021/12/31 13:06:36;;;;;;;0.20;0.00;;;21.30;99.90;;;;;;20895937;28;20240;-78
2021/12/31 13:16:43;;;;;;;0.20;0.07;;;21.00;99.90;;;;;;20915801;28;21279;-77
2021/12/31 13:26:54;;;;;;;0.20;0.00;;;20.50;99.90;;;;;;20893144;28;20226;-78
2021/12/31 13:37:02;;;;;;;0.20;0.10;;;20.50;99.90;;;;;;20811076;28;20229;-79
2021/12/31 13:47:11;;;;;;;0.20;0.13;;;20.70;99.90;;;;;;20835089;28;20198;-77
2021/12/31 13:57:21;;;;;;;0.20;0.10;;;20.50;99.90;;;;;;20825256;28;20281;-77
2021/12/31 14:07:33;;;;;;;0.20;0.00;;;20.90;99.90;;;;;;20848155;28;20252;-77
2021/12/31 14:17:38;;;;;;;1.27;1.17;;;21.00;99.90;;;;;;20859724;28;20258;-76
2021/12/31 14:27:42;;;;;;;0.20;0.10;;;20.90;99.90;;;;;;20894154;28;20190;-75
2021/12/31 14:37:48;;;;;;;0.20;0.13;;;21.00;99.90;;;;;;20870010;28;20229;-76
2021/12/31 14:47:56;;;;;;;0.20;0.10;;;20.50;99.90;;;;;;20859249;28;20198;-78
2021/12/31 14:58:11;;;;;;;0.20;0.10;;;19.90;99.90;;;;;;20816059;28;20218;-80
2021/12/31 15:08:17;;;;;;;0.20;0.00;;;19.20;99.90;;;;;;20826794;28;20221;-81
2021/12/31 15:18:28;;;;;;;0.20;0.10;;;19.20;99.90;;;;;;20922421;28;20225;-78
2021/12/31 15:28:31;;;;;;;0.20;0.00;;;19.20;99.90;;;;;;20923573;28;20192;-81
2021/12/31 15:38:37;;;;;;;0.20;0.10;;;19.10;99.90;;;;;;20902542;28;20223;-80
2021/12/31 15:48:42;;;;;;;0.20;0.10;;;18.80;99.90;;;;;;20890412;28;20523;-78
2021/12/31 15:58:49;;;;;;;0.20;0.10;;;17.80;99.90;;;;;;20858418;28;20221;-81
2021/12/31 16:08:55;;;;;;;0.20;0.10;;;17.30;99.90;;;;;;20858649;28;20224;-82
2021/12/31 16:19:00;;;;;;;0.20;0.00;;;16.20;99.90;;;;;;20847299;28;20276;-79
2021/12/31 16:29:04;;;;;;;0.20;0.00;;;15.40;99.90;;;;;;20906772;28;20201;-78
2021/12/31 16:39:09;;;;;;;0.20;0.07;;;15.00;99.90;;;;;;20878350;28;20290;-77
2021/12/31 16:49:13;;;;;;;0.40;0.40;;;14.20;99.90;;;;;;20892774;28;20198;-79
2021/12/31 16:59:18;;;;;;;0.20;0.13;;;13.80;99.90;;;;;;20908805;28;20268;-78
2021/12/31 17:09:21;;;;;;;0.20;0.00;;;13.60;99.90;;;;;;20821928;28;20198;-79
2021/12/31 17:19:27;;;;;;;0.20;0.00;;;13.00;99.90;;;;;;20798163;28;20253;-80
2021/12/31 17:29:31;;;;;;;0.20;0.00;;;13.00;99.90;;;;;;20816747;28;20277;-79
2021/12/31 17:39:38;;;;;;;8.37;8.00;;;12.80;99.90;;;;;;20776197;28;20691;-80
2021/12/31 17:49:44;;;;;;;0.20;0.10;;;12.70;99.90;;;;;;20759995;28;20776;-77
2021/12/31 17:59:56;;;;;;;0.20;0.20;;;12.50;99.90;;;;;;20789400;28;20233;-79
2021/12/31 18:10:00;;;;;;;0.20;0.10;;;12.50;99.90;;;;;;20879415;23;20240;-77
2021/12/31 18:20:07;;;;;;;0.20;0.10;;;12.00;99.90;;;;;;20897979;28;20225;-80
2021/12/31 18:30:13;;;;;;;0.20;0.10;;;11.90;99.90;;;;;;20875591;28;20261;-77
2021/12/31 18:40:18;;;;;;;0.20;0.10;;;11.80;99.90;;;;;;20901621;28;20221;-76
2021/12/31 18:50:22;;;;;;;0.20;0.10;;;11.80;99.90;;;;;;20858309;28;20194;-77
2021/12/31 19:00:28;;;;;;;0.20;0.10;;;11.20;99.90;;;;;;20880939;28;20624;-77
2021/12/31 19:10:32;;;;;;;0.20;0.10;;;11.20;99.90;;;;;;20847055;28;20233;-78
2021/12/31 19:20:37;;;;;;;0.20;0.00;;;11.00;99.90;;;;;;20837153;28;20232;-76
2021/12/31 19:30:41;;;;;;;0.20;0.10;;;10.90;99.90;;;;;;20833184;28;20220;-76
2021/12/31 19:40:47;;;;;;;0.20;0.10;;;10.70;99.90;;;;;;20894894;28;20225;-78
2021/12/31 19:50:50;;;;;;;0.20;0.10;;;10.70;99.90;;;;;;20893596;28;20201;-77
2021/12/31 20:00:55;;;;;;;0.20;0.00;;;10.50;99.90;;;;;;20912204;28;20233;-77
2021/12/31 20:11:02;;;;;;;0.50;0.50;;;10.40;99.90;;;;;;20913040;28;20249;-78
2021/12/31 20:21:07;;;;;;;0.20;0.00;;;10.50;99.90;;;;;;20914643;28;20611;-79
2021/12/31 20:31:12;;;;;;;0.40;0.40;;;10.30;99.90;;;;;;20915960;28;20281;-77
2021/12/31 20:41:17;;;;;;;0.20;0.00;;;10.40;99.90;;;;;;20913422;28;20233;-78
2021/12/31 20:51:21;;;;;;;0.20;0.00;;;10.30;99.90;;;;;;20895514;28;20698;-78
2021/12/31 21:01:26;;;;;;;0.20;0.10;;;10.40;99.90;;;;;;20907928;28;20226;-79
2021/12/31 21:11:29;;;;;;;0.20;0.00;;;10.30;99.90;;;;;;20891855;28;20229;-78
2021/12/31 21:21:34;;;;;;;0.20;0.00;;;10.10;99.90;;;;;;20907180;28;20319;-78
2021/12/31 21:31:38;;;;;;;0.20;0.10;;;9.90;99.90;;;;;;20906365;28;20670;-78
2021/12/31 21:41:43;;;;;;;0.20;0.00;;;10.00;99.90;;;;;;20888792;28;20233;-77
2021/12/31 21:51:47;;;;;;;0.20;0.10;;;10.00;99.90;;;;;;20904501;28;20662;-76
2021/12/31 22:01:52;;;;;;;0.30;0.30;;;10.20;99.90;;;;;;20904612;28;20264;-76
2021/12/31 22:11:56;;;;;;;0.20;0.03;;;9.90;99.90;;;;;;20902917;28;20225;-78
2021/12/31 22:22:11;;;;;;;0.20;0.00;;;9.60;99.90;;;;;;20902455;28;20221;-76
2021/12/31 22:32:15;;;;;;;0.20;0.20;;;9.50;99.90;;;;;;20901678;28;20205;-77
2021/12/31 22:42:20;;;;;;;0.20;0.10;;;9.80;99.90;;;;;;20859401;28;20230;-77
2021/12/31 22:52:38;;;;;;;0.20;0.00;;;9.60;99.90;;;;;;20874611;28;20210;-77
2021/12/31 23:02:44;;;;;;;0.20;0.03;;;9.30;99.90;;;;;;20824777;28;20198;-77
2021/12/31 23:12:47;;;;;;;0.20;0.00;;;8.80;99.90;;;;;;20831222;28;20318;-78
2021/12/31 23:22:52;;;;;;;0.20;0.00;;;9.20;99.90;;;;;;20935067;28;20201;-75
2021/12/31 23:32:57;;;;;;;0.20;0.10;;;9.50;99.90;;;;;;20893664;28;20213;-75
2021/12/31 23:43:13;;;;;;;0.30;0.30;;;10.10;99.90;;;;;;20874955;28;20381;-75
2021/12/31 23:53:17;;;;;;;0.20;0.00;;;9.60;99.90;;;;;;20874112;28;20302;-75
